createdAt,value
2023-05-17T00:01:47.643Z,3.30
2023-05-17T00:04:14.799Z,3.58
2023-05-17T00:06:41.922Z,3.00
2023-05-17T00:09:09.543Z,3.75
2023-05-17T00:11:36.728Z,3.30
2023-05-17T00:14:03.994Z,3.47
2023-05-17T00:16:31.040Z,3.25
2023-05-17T00:18:58.184Z,3.30
2023-05-17T00:21:25.897Z,3.45
2023-05-17T00:23:53.093Z,3.42
2023-05-17T00:26:20.308Z,3.08
2023-05-17T00:28:47.338Z,3.30
2023-05-17T00:31:14.451Z,3.30
2023-05-17T00:33:41.497Z,3.30
2023-05-17T00:36:08.799Z,2.92
2023-05-17T00:38:35.945Z,2.90
2023-05-17T00:41:03.002Z,2.90
2023-05-17T00:43:30.436Z,3.55
2023-05-17T00:45:57.483Z,3.35
2023-05-17T00:48:26.251Z,3.70
2023-05-17T00:50:54.103Z,3.10
2023-05-17T00:53:21.662Z,3.08
2023-05-17T00:55:49.365Z,3.10
2023-05-17T00:58:16.885Z,3.22
2023-05-17T01:00:44.540Z,2.75
2023-05-17T01:03:11.746Z,2.90
2023-05-17T01:05:39.422Z,2.95
2023-05-17T01:08:06.576Z,3.35
2023-05-17T01:11:14.368Z,2.55
2023-05-17T01:13:55.475Z,3.22
2023-05-17T01:16:44.480Z,2.85
2023-05-17T01:19:34.231Z,2.83
2023-05-17T01:22:18.608Z,3.40
2023-05-17T01:25:33.019Z,3.33
2023-05-17T01:28:01.920Z,3.15
2023-05-17T01:30:32.145Z,2.90
2023-05-17T01:33:00.877Z,2.42
2023-05-17T01:35:28.382Z,3.03
2023-05-17T01:37:55.918Z,3.05
2023-05-17T01:40:23.570Z,3.17
2023-05-17T01:43:38.832Z,2.78
2023-05-17T01:46:31.193Z,3.08
2023-05-17T01:49:24.796Z,3.38
2023-05-17T01:52:08.025Z,3.08
2023-05-17T01:55:00.153Z,3.33
2023-05-17T01:57:33.584Z,3.70
2023-05-17T02:00:02.204Z,3.20
2023-05-17T02:02:29.878Z,3.50
2023-05-17T02:04:56.944Z,3.35
2023-05-17T02:07:24.070Z,4.18
2023-05-17T02:09:51.299Z,3.53
2023-05-17T02:12:18.317Z,3.50
2023-05-17T02:14:45.409Z,3.67
2023-05-17T02:17:13.354Z,3.45
2023-05-17T02:19:40.488Z,3.58
2023-05-17T02:22:07.501Z,3.60
2023-05-17T02:24:34.557Z,3.15
2023-05-17T02:27:01.987Z,3.75
2023-05-17T02:29:29.124Z,3.30
2023-05-17T02:31:56.147Z,2.95
2023-05-17T02:34:23.269Z,3.50
2023-05-17T02:36:50.342Z,3.20
2023-05-17T02:39:17.354Z,3.60
2023-05-17T02:41:44.470Z,3.30
2023-05-17T02:44:11.505Z,3.90
2023-05-17T02:46:38.715Z,3.92
2023-05-17T02:49:05.842Z,3.90
2023-05-17T02:51:32.893Z,3.83
2023-05-17T02:53:59.943Z,4.72
2023-05-17T02:56:27.000Z,4.18
2023-05-17T02:58:55.479Z,4.30
2023-05-17T03:01:22.611Z,4.63
2023-05-17T03:03:49.846Z,5.22
2023-05-17T03:06:16.950Z,5.13
2023-05-17T03:08:43.977Z,4.72
2023-05-17T03:11:11.018Z,5.10
2023-05-17T03:13:38.069Z,4.97
2023-05-17T03:16:05.653Z,5.25
2023-05-17T03:18:32.903Z,4.65
2023-05-17T03:21:00.116Z,5.15
2023-05-17T03:23:27.210Z,5.13
2023-05-17T03:25:54.227Z,4.97
2023-05-17T03:28:21.318Z,5.25
2023-05-17T03:30:48.392Z,5.55
2023-05-17T03:33:15.494Z,5.15
2023-05-17T03:35:42.669Z,5.68
2023-05-17T03:38:09.752Z,5.65
2023-05-17T03:40:36.805Z,6.18
2023-05-17T03:43:03.944Z,5.75
2023-05-17T03:45:31.072Z,5.47
2023-05-17T03:47:58.520Z,5.53
2023-05-17T03:50:25.710Z,6.18
2023-05-17T03:52:52.907Z,7.05
2023-05-17T03:55:20.220Z,5.53
2023-05-17T03:57:47.230Z,5.63
2023-05-17T04:00:21.140Z,6.70
2023-05-17T04:02:49.034Z,6.07
2023-05-17T04:05:16.576Z,6.00
2023-05-17T04:07:43.796Z,5.78
2023-05-17T04:10:11.219Z,5.97
2023-05-17T04:12:38.446Z,5.80
2023-05-17T04:15:06.345Z,6.10
2023-05-17T04:17:33.502Z,6.05
2023-05-17T04:20:00.671Z,6.63
2023-05-17T04:22:27.698Z,5.78
2023-05-17T04:24:54.719Z,6.05
2023-05-17T04:27:21.995Z,5.97
2023-05-17T04:29:49.055Z,6.22
2023-05-17T04:32:16.638Z,6.28
2023-05-17T04:34:44.290Z,5.75
2023-05-17T04:37:11.309Z,6.38
2023-05-17T04:39:38.365Z,5.93
2023-05-17T04:42:05.863Z,6.13
2023-05-17T04:44:32.932Z,5.20
2023-05-17T04:46:59.980Z,5.57
2023-05-17T04:49:27.082Z,5.85
2023-05-17T04:51:54.103Z,5.07
2023-05-17T04:54:23.866Z,5.05
2023-05-17T04:56:50.948Z,5.72
2023-05-17T04:59:17.978Z,5.78
2023-05-17T05:01:45.015Z,5.47
2023-05-17T05:04:12.194Z,4.75
2023-05-17T05:06:39.671Z,4.85
2023-05-17T05:09:07.255Z,4.85
2023-05-17T05:11:34.311Z,5.00
2023-05-17T05:14:02.437Z,5.18
2023-05-17T05:16:29.462Z,5.00
2023-05-17T05:18:56.605Z,5.03
2023-05-17T05:21:23.940Z,5.63
2023-05-17T05:23:51.148Z,5.20
2023-05-17T05:26:18.277Z,4.97
2023-05-17T05:28:45.492Z,5.82
2023-05-17T05:31:12.542Z,4.88
2023-05-17T05:33:39.680Z,5.35
2023-05-17T05:36:07.177Z,4.93
2023-05-17T05:38:34.475Z,4.78
2023-05-17T05:41:01.544Z,5.28
2023-05-17T05:43:28.633Z,4.68
2023-05-17T05:45:55.939Z,5.57
2023-05-17T05:48:23.119Z,5.57
2023-05-17T05:50:50.306Z,4.57
2023-05-17T05:53:19.394Z,5.15
2023-05-17T05:55:49.932Z,4.35
2023-05-17T05:58:16.953Z,4.80
2023-05-17T06:00:43.999Z,5.00
2023-05-17T06:03:11.102Z,3.95
2023-05-17T06:05:39.227Z,4.53
2023-05-17T06:08:06.802Z,4.97
2023-05-17T06:10:34.279Z,4.60
2023-05-17T06:13:01.373Z,4.45
2023-05-17T06:15:28.793Z,4.93
2023-05-17T06:17:56.052Z,4.72
2023-05-17T06:20:23.474Z,4.85
2023-05-17T06:22:50.729Z,5.60
2023-05-17T06:25:17.920Z,6.40
2023-05-17T06:27:45.068Z,5.53
2023-05-17T06:30:12.925Z,5.63
2023-05-17T06:32:40.161Z,6.25
2023-05-17T06:35:08.430Z,6.53
2023-05-17T06:37:35.525Z,6.78
2023-05-17T06:40:16.085Z,6.57
2023-05-17T06:42:44.363Z,6.57
2023-05-17T06:45:11.795Z,7.57
2023-05-17T06:47:39.133Z,7.35
2023-05-17T06:50:08.712Z,7.78
2023-05-17T06:52:36.611Z,8.30
2023-05-17T06:55:03.861Z,6.63
2023-05-17T06:57:31.030Z,7.72
2023-05-17T06:59:58.099Z,8.07
2023-05-17T07:02:25.241Z,8.00
2023-05-17T07:04:52.430Z,8.15
2023-05-17T07:07:19.505Z,8.52
2023-05-17T07:09:46.543Z,7.78
2023-05-17T07:12:13.596Z,8.07
2023-05-17T07:14:40.677Z,8.15
2023-05-17T07:17:07.703Z,7.75
2023-05-17T07:19:34.800Z,8.48
2023-05-17T07:22:01.991Z,8.13
2023-05-17T07:24:29.375Z,8.40
2023-05-17T07:26:58.964Z,8.02
2023-05-17T07:29:26.010Z,6.88
2023-05-17T07:31:53.060Z,7.38
2023-05-17T07:34:20.098Z,7.10
2023-05-17T07:36:47.151Z,7.15
2023-05-17T07:39:14.205Z,7.70
2023-05-17T07:41:41.311Z,7.88
2023-05-17T07:44:08.350Z,7.35
2023-05-17T07:46:37.026Z,6.90
2023-05-17T07:49:04.257Z,7.57
2023-05-17T07:51:31.917Z,7.20
2023-05-17T07:53:59.026Z,7.28
2023-05-17T07:56:26.099Z,6.90
2023-05-17T07:58:53.348Z,7.25
2023-05-17T08:01:20.577Z,7.85
2023-05-17T08:03:50.601Z,7.20
2023-05-17T08:06:18.255Z,6.88
2023-05-17T08:08:45.740Z,7.18
2023-05-17T08:11:14.257Z,6.20
2023-05-17T08:13:41.605Z,6.80
2023-05-17T08:16:14.110Z,7.00
2023-05-17T08:18:43.500Z,9.98
2023-05-17T08:21:11.461Z,6.88
2023-05-17T08:23:41.650Z,6.30
2023-05-17T08:26:08.849Z,7.63
2023-05-17T08:28:36.013Z,6.40
2023-05-17T08:31:04.291Z,6.18
2023-05-17T08:33:31.535Z,6.50
2023-05-17T08:36:01.422Z,6.13
2023-05-17T08:38:28.566Z,5.25
2023-05-17T08:40:56.762Z,4.75
2023-05-17T08:43:27.541Z,5.53
2023-05-17T08:45:57.912Z,5.75
2023-05-17T08:48:32.647Z,5.72
2023-05-17T08:51:00.274Z,5.38
2023-05-17T08:53:28.442Z,5.93
2023-05-17T08:56:02.616Z,5.72
2023-05-17T08:58:47.955Z,5.68
2023-05-17T09:01:25.929Z,6.40
2023-05-17T09:03:57.458Z,6.10
2023-05-17T09:06:24.593Z,6.13
2023-05-17T09:08:53.471Z,6.00
2023-05-17T09:11:32.905Z,5.82
2023-05-17T09:14:03.603Z,5.97
2023-05-17T09:16:33.450Z,5.32
2023-05-17T09:19:02.071Z,5.00
2023-05-17T09:21:31.552Z,5.70
2023-05-17T09:24:07.382Z,5.43
2023-05-17T09:26:53.429Z,5.68
2023-05-17T09:29:20.742Z,5.80
2023-05-17T09:31:47.775Z,6.03
2023-05-17T09:34:19.707Z,5.10
2023-05-17T09:36:46.823Z,6.22
2023-05-17T09:39:15.062Z,5.72
2023-05-17T09:41:48.023Z,6.50
2023-05-17T09:44:16.703Z,5.63
2023-05-17T09:46:48.800Z,6.10
2023-05-17T09:49:17.653Z,5.57
2023-05-17T09:51:50.539Z,6.20
2023-05-17T09:54:18.483Z,5.75
2023-05-17T09:56:53.103Z,5.63
2023-05-17T09:59:21.271Z,5.85
2023-05-17T10:01:50.488Z,5.80
2023-05-17T10:04:20.783Z,6.00
2023-05-17T10:06:52.416Z,6.35
2023-05-17T10:09:23.623Z,6.90
2023-05-17T10:11:55.901Z,5.63
2023-05-17T10:14:34.149Z,6.03
2023-05-17T10:17:03.241Z,5.20
2023-05-17T10:19:31.323Z,5.78
2023-05-17T10:22:11.055Z,6.40
2023-05-17T10:24:47.996Z,6.32
2023-05-17T10:27:16.169Z,5.75
2023-05-17T10:29:47.018Z,5.25
2023-05-17T10:32:17.437Z,6.43
2023-05-17T10:34:47.640Z,5.72
2023-05-17T10:37:23.154Z,6.10
2023-05-17T10:39:51.843Z,6.53
2023-05-17T10:42:21.676Z,5.88
2023-05-17T10:44:48.832Z,6.72
2023-05-17T10:47:16.352Z,6.60
2023-05-17T10:49:48.004Z,5.70
2023-05-17T10:52:23.604Z,5.85
2023-05-17T10:54:53.508Z,6.53
2023-05-17T10:57:50.754Z,6.35
2023-05-17T11:00:21.862Z,6.32
2023-05-17T11:02:50.593Z,6.25
2023-05-17T11:05:27.234Z,6.35
2023-05-17T11:08:18.327Z,6.47
2023-05-17T11:11:18.295Z,6.40
2023-05-17T11:13:52.697Z,7.20
2023-05-17T11:16:23.658Z,7.30
2023-05-17T11:18:53.397Z,6.75
2023-05-17T11:21:28.198Z,6.25
2023-05-17T11:24:01.474Z,6.45
2023-05-17T11:26:38.092Z,6.00
2023-05-17T11:29:10.553Z,7.03
2023-05-17T11:31:44.403Z,6.30
2023-05-17T11:34:12.419Z,6.72
2023-05-17T11:36:54.434Z,6.18
2023-05-17T11:39:23.772Z,6.10
2023-05-17T11:41:57.834Z,6.35
2023-05-17T11:44:32.000Z,6.38
2023-05-17T11:47:07.082Z,6.78
2023-05-17T11:49:39.685Z,6.28
2023-05-17T11:52:08.057Z,7.15
2023-05-17T11:54:38.413Z,6.32
2023-05-17T11:57:06.625Z,6.47
2023-05-17T11:59:40.203Z,7.38
2023-05-17T12:02:07.658Z,6.90
2023-05-17T12:04:39.331Z,6.57
2023-05-17T12:07:10.552Z,7.68
2023-05-17T12:09:40.346Z,7.63
2023-05-17T12:12:08.642Z,7.82
2023-05-17T12:14:36.113Z,7.85
2023-05-17T12:17:08.019Z,7.93
2023-05-17T12:19:35.553Z,8.57
2023-05-17T12:22:12.738Z,8.38
2023-05-17T12:24:43.873Z,8.93
2023-05-17T12:27:11.569Z,9.45
2023-05-17T12:29:39.687Z,9.60
2023-05-17T12:32:10.245Z,9.35
2023-05-17T12:34:37.903Z,9.50
2023-05-17T12:37:10.260Z,9.30
2023-05-17T12:39:37.743Z,9.88
2023-05-17T12:42:05.491Z,10.02
2023-05-17T12:44:33.765Z,9.70
2023-05-17T12:47:02.947Z,9.77
2023-05-17T12:49:30.006Z,9.30
2023-05-17T12:52:03.236Z,10.00
2023-05-17T12:54:30.803Z,10.25
2023-05-17T12:56:58.048Z,11.23
2023-05-17T12:59:26.089Z,11.25
2023-05-17T13:01:58.222Z,11.50
2023-05-17T13:04:36.791Z,12.45
2023-05-17T13:07:05.736Z,10.30
2023-05-17T13:09:34.499Z,11.63
2023-05-17T13:12:05.901Z,11.18
2023-05-17T13:14:47.040Z,10.15
2023-05-17T13:17:22.400Z,10.30
2023-05-17T13:19:49.834Z,10.60
2023-05-17T13:22:17.081Z,10.00
2023-05-17T13:24:45.182Z,11.05
2023-05-17T13:27:12.874Z,9.85
2023-05-17T13:29:43.030Z,10.15
2023-05-17T13:32:12.942Z,10.75
2023-05-17T13:34:41.472Z,10.50
2023-05-17T13:37:11.508Z,10.30
2023-05-17T13:39:41.708Z,10.90
2023-05-17T13:42:09.930Z,10.30
2023-05-17T13:44:38.405Z,9.35
2023-05-17T13:47:06.299Z,9.77
2023-05-17T13:49:33.439Z,9.38
2023-05-17T13:52:01.010Z,9.60
2023-05-17T13:54:28.195Z,9.77
2023-05-17T13:56:55.723Z,9.40
2023-05-17T13:59:22.806Z,9.98
2023-05-17T14:01:50.018Z,10.07
2023-05-17T14:04:17.275Z,10.93
2023-05-17T14:06:45.827Z,10.85
2023-05-17T14:09:14.480Z,11.60
2023-05-17T14:11:41.517Z,11.18
2023-05-17T14:14:08.597Z,12.30
2023-05-17T14:16:36.097Z,13.48
2023-05-17T14:19:04.804Z,13.35
2023-05-17T14:21:32.153Z,14.80
2023-05-17T14:23:59.312Z,14.98
2023-05-17T14:26:26.617Z,15.25
2023-05-17T14:28:53.812Z,14.40
2023-05-17T14:31:21.090Z,13.10
2023-05-17T14:33:48.302Z,11.80
2023-05-17T14:36:15.657Z,10.43
2023-05-17T14:38:42.753Z,11.02
2023-05-17T14:41:09.780Z,11.68
2023-05-17T14:43:36.927Z,11.68
2023-05-17T14:46:04.632Z,11.20
2023-05-17T14:48:31.782Z,11.57
2023-05-17T14:50:58.919Z,11.52
2023-05-17T14:53:29.428Z,10.85
2023-05-17T14:55:59.538Z,10.80
2023-05-17T14:58:28.117Z,12.00
2023-05-17T15:01:04.903Z,11.40
2023-05-17T15:03:33.389Z,10.88
2023-05-17T15:06:03.256Z,11.05
2023-05-17T15:08:32.655Z,12.27
2023-05-17T15:10:59.761Z,11.70
2023-05-17T15:13:26.927Z,11.60
2023-05-17T15:15:54.160Z,10.88
2023-05-17T15:18:22.389Z,10.20
2023-05-17T15:20:49.469Z,10.00
2023-05-17T15:23:16.592Z,10.20
2023-05-17T15:25:43.663Z,9.07
2023-05-17T15:28:10.833Z,9.70
2023-05-17T15:30:37.931Z,11.13
2023-05-17T15:33:05.185Z,11.15
2023-05-17T15:35:32.469Z,11.30
2023-05-17T15:38:05.453Z,11.63
2023-05-17T15:40:33.131Z,10.93
2023-05-17T15:43:00.211Z,11.38
2023-05-17T15:45:27.535Z,12.02
2023-05-17T15:47:57.108Z,11.90
2023-05-17T15:50:24.512Z,13.25
2023-05-17T15:52:51.710Z,13.35
2023-05-17T15:55:19.298Z,13.55
2023-05-17T15:57:46.781Z,14.20
2023-05-17T16:00:14.595Z,14.07
2023-05-17T16:02:41.899Z,15.90
2023-05-17T16:05:09.600Z,16.17
2023-05-17T16:07:37.036Z,16.25
2023-05-17T16:10:04.493Z,16.33
2023-05-17T16:12:31.694Z,16.13
2023-05-17T16:14:58.825Z,15.43
2023-05-17T16:17:27.186Z,16.10
2023-05-17T16:19:54.534Z,15.90
2023-05-17T16:22:21.886Z,16.23
2023-05-17T16:24:53.923Z,14.55
2023-05-17T16:27:22.122Z,14.23
2023-05-17T16:29:49.790Z,12.80
2023-05-17T16:32:17.428Z,13.02
2023-05-17T16:34:45.154Z,13.40
2023-05-17T16:37:12.709Z,12.30
2023-05-17T16:39:40.453Z,12.85
2023-05-17T16:42:08.115Z,13.40
2023-05-17T16:44:36.075Z,13.23
2023-05-17T16:47:04.456Z,13.32
2023-05-17T16:49:32.470Z,13.38
2023-05-17T16:52:00.384Z,13.25
2023-05-17T16:54:29.084Z,13.65
2023-05-17T16:56:57.337Z,12.95
2023-05-17T16:59:25.290Z,11.90
2023-05-17T17:01:53.259Z,12.75
2023-05-17T17:04:21.548Z,12.43
2023-05-17T17:06:49.568Z,13.25
2023-05-17T17:09:17.684Z,12.30
2023-05-17T17:11:46.729Z,11.57
2023-05-17T17:14:17.461Z,12.60
2023-05-17T17:16:45.705Z,12.38
2023-05-17T17:19:14.034Z,12.95
2023-05-17T17:21:42.970Z,13.00
2023-05-17T17:24:11.119Z,13.13
2023-05-17T17:26:39.245Z,12.18
2023-05-17T17:29:08.923Z,12.77
2023-05-17T17:31:36.983Z,13.15
2023-05-17T17:34:05.699Z,13.63
2023-05-17T17:36:33.963Z,14.20
2023-05-17T17:39:02.138Z,14.73
2023-05-17T17:41:30.881Z,14.10
2023-05-17T17:44:00.110Z,13.80
2023-05-17T17:46:28.265Z,13.93
2023-05-17T17:48:56.950Z,14.88
2023-05-17T17:51:28.091Z,15.95
2023-05-17T17:53:56.473Z,17.73
2023-05-17T17:56:26.264Z,15.73
2023-05-17T17:58:56.561Z,16.38
2023-05-17T18:01:24.720Z,15.48
2023-05-17T18:03:52.889Z,14.40
2023-05-17T18:06:21.069Z,14.80
2023-05-17T18:08:51.180Z,15.32
2023-05-17T18:11:19.324Z,15.48
2023-05-17T18:13:47.630Z,15.73
2023-05-17T18:16:15.898Z,14.57
2023-05-17T18:18:44.849Z,15.07
2023-05-17T18:21:13.440Z,13.70
2023-05-17T18:23:41.652Z,15.25
2023-05-17T18:26:09.795Z,13.55
2023-05-17T18:28:42.594Z,14.38
2023-05-17T18:31:12.016Z,13.32
2023-05-17T18:33:40.147Z,13.50
2023-05-17T18:36:08.529Z,13.65
2023-05-17T18:38:36.739Z,13.45
2023-05-17T18:41:04.939Z,12.43
2023-05-17T18:43:34.085Z,12.57
2023-05-17T18:46:02.272Z,13.18
2023-05-17T18:48:30.379Z,13.95
2023-05-17T18:50:58.473Z,13.68
2023-05-17T18:53:26.986Z,12.85
2023-05-17T18:55:55.099Z,12.80
2023-05-17T18:58:23.357Z,13.25
2023-05-17T19:00:51.651Z,13.23
2023-05-17T19:03:19.968Z,12.63
2023-05-17T19:05:48.290Z,13.82
2023-05-17T19:08:16.374Z,13.00
2023-05-17T19:10:44.652Z,12.63
2023-05-17T19:13:14.370Z,13.80
2023-05-17T19:15:42.692Z,13.07
2023-05-17T19:18:10.840Z,11.68
2023-05-17T19:20:39.197Z,12.48
2023-05-17T19:23:07.440Z,11.52
2023-05-17T19:25:35.359Z,11.88
2023-05-17T19:28:03.396Z,11.10
2023-05-17T19:30:32.749Z,10.73
2023-05-17T19:33:01.202Z,9.90
2023-05-17T19:35:29.258Z,9.75
2023-05-17T19:37:57.580Z,10.15
2023-05-17T19:40:25.699Z,9.70
2023-05-17T19:42:53.879Z,9.23
2023-05-17T19:45:21.999Z,9.10
2023-05-17T19:47:50.267Z,10.23
2023-05-17T19:50:18.397Z,9.93
2023-05-17T19:52:46.790Z,9.68
2023-05-17T19:55:16.592Z,9.98
2023-05-17T19:57:44.735Z,9.27
2023-05-17T20:00:13.577Z,9.13
2023-05-17T20:02:42.284Z,9.88
2023-05-17T20:05:10.601Z,10.90
2023-05-17T20:07:38.805Z,10.50
2023-05-17T20:10:07.661Z,9.93
2023-05-17T20:12:35.872Z,9.63
2023-05-17T20:15:06.750Z,9.70
2023-05-17T20:17:34.863Z,10.35
2023-05-17T20:20:03.124Z,9.85
2023-05-17T20:22:32.422Z,10.10
2023-05-17T20:25:01.113Z,10.25
2023-05-17T20:27:29.214Z,10.05
2023-05-17T20:29:58.734Z,10.05
2023-05-17T20:32:27.131Z,10.15
2023-05-17T20:34:55.226Z,9.80
2023-05-17T20:37:23.354Z,10.23
2023-05-17T20:39:52.050Z,10.50
2023-05-17T20:42:20.932Z,10.10
2023-05-17T20:44:49.513Z,10.63
2023-05-17T20:47:17.552Z,10.70
2023-05-17T20:49:45.801Z,9.68
2023-05-17T20:52:14.941Z,10.68
2023-05-17T20:54:44.317Z,10.48
2023-05-17T20:57:12.324Z,9.82
2023-05-17T20:59:40.429Z,10.38
2023-05-17T21:02:07.909Z,9.52
2023-05-17T21:04:34.981Z,9.05
2023-05-17T21:07:02.224Z,11.27
2023-05-17T21:09:30.734Z,9.95
2023-05-17T21:11:57.786Z,9.82
2023-05-17T21:14:24.877Z,10.00
2023-05-17T21:16:51.932Z,9.75
2023-05-17T21:19:19.118Z,9.95
2023-05-17T21:21:46.313Z,9.15
2023-05-17T21:24:13.410Z,9.35
2023-05-17T21:26:41.261Z,9.77
2023-05-17T21:29:08.475Z,9.43
2023-05-17T21:31:35.717Z,9.52
2023-05-17T21:34:02.925Z,9.32
2023-05-17T21:36:29.977Z,9.43
2023-05-17T21:38:57.135Z,9.80
2023-05-17T21:41:24.187Z,9.25
2023-05-17T21:43:51.328Z,9.38
2023-05-17T21:46:18.474Z,9.55
2023-05-17T21:48:45.650Z,9.88
2023-05-17T21:51:13.999Z,9.40
2023-05-17T21:53:41.155Z,10.52
2023-05-17T21:56:08.209Z,10.32
2023-05-17T21:58:35.355Z,8.43
2023-05-17T22:01:02.474Z,9.48
2023-05-17T22:03:29.654Z,8.57
2023-05-17T22:05:56.801Z,8.98
2023-05-17T22:08:23.823Z,10.00
2023-05-17T22:10:50.858Z,9.50
2023-05-17T22:13:18.306Z,10.20
2023-05-17T22:15:45.595Z,9.23
2023-05-17T22:18:13.782Z,9.02
2023-05-17T22:20:40.971Z,9.10
2023-05-17T22:23:08.073Z,9.48
2023-05-17T22:25:36.042Z,8.88
2023-05-17T22:28:03.817Z,10.35
2023-05-17T22:30:31.096Z,9.57
2023-05-17T22:32:58.485Z,8.98
2023-05-17T22:35:25.650Z,8.95
2023-05-17T22:37:53.447Z,9.88
2023-05-17T22:40:21.191Z,9.45
2023-05-17T22:42:48.276Z,8.15
2023-05-17T22:45:15.566Z,9.75
2023-05-17T22:47:42.806Z,9.35
2023-05-17T22:50:12.077Z,8.70
2023-05-17T22:52:42.657Z,8.35
2023-05-17T22:55:10.711Z,8.60
2023-05-17T22:57:38.007Z,9.70
2023-05-17T23:00:08.998Z,8.77
2023-05-17T23:02:36.301Z,9.15
2023-05-17T23:05:03.786Z,8.82
2023-05-17T23:07:38.265Z,8.13
2023-05-17T23:10:10.506Z,8.35
2023-05-17T23:12:38.648Z,9.00
2023-05-17T23:15:06.819Z,8.52
2023-05-17T23:17:35.526Z,9.35
2023-05-17T23:20:12.664Z,8.93
2023-05-17T23:22:40.256Z,7.70
2023-05-17T23:25:07.816Z,8.35
2023-05-17T23:27:36.233Z,8.63
2023-05-17T23:30:04.461Z,8.30
2023-05-17T23:32:34.845Z,8.43
2023-05-17T23:35:05.299Z,8.40
2023-05-17T23:37:33.990Z,8.05
2023-05-17T23:40:01.529Z,7.38
2023-05-17T23:42:29.474Z,7.53
2023-05-17T23:44:56.586Z,7.88
2023-05-17T23:47:23.790Z,7.45
2023-05-17T23:49:51.141Z,6.90
2023-05-17T23:52:19.016Z,7.25
2023-05-17T23:54:47.265Z,6.40
2023-05-17T23:57:14.363Z,6.93
2023-05-17T23:59:41.681Z,6.70
